TimeCDT,TemperatureF,Dew PointF,Humidity,Sea Level PressureIn,VisibilityMPH,Wind Direction,Wind SpeedMPH,Gust SpeedMPH,PrecipitationIn,Events,Conditions,WindDirDegrees,DateUTC
12:54 AM,77.0,73.9,90,30.08,10.0,South,10.4,-,N/A,,Overcast,170,2012-09-01 05:54:00
1:20 AM,77.0,73.4,89,30.09,10.0,South,11.5,-,N/A,,Overcast,180,2012-09-01 06:20:00
1:54 AM,78.1,75.0,90,30.08,10.0,South,10.4,-,N/A,,Overcast,180,2012-09-01 06:54:00
2:05 AM,78.8,73.4,83,30.09,10.0,South,10.4,-,N/A,,Overcast,180,2012-09-01 07:05:00
2:54 AM,78.1,75.0,90,30.07,10.0,South,10.4,-,N/A,,Mostly Cloudy,190,2012-09-01 07:54:00
3:54 AM,77.0,75.0,94,30.07,10.0,South,9.2,-,N/A,,Mostly Cloudy,180,2012-09-01 08:54:00
4:18 AM,77.0,73.4,89,30.09,10.0,South,8.1,-,N/A,,Scattered Clouds,190,2012-09-01 09:18:00
4:54 AM,77.0,73.9,90,30.08,10.0,South,5.8,-,N/A,,Partly Cloudy,180,2012-09-01 09:54:00
5:27 AM,77.0,73.4,89,30.09,10.0,South,9.2,-,N/A,,Mostly Cloudy,180,2012-09-01 10:27:00
5:40 AM,77.0,73.4,89,30.10,10.0,South,8.1,-,N/A,,Scattered Clouds,180,2012-09-01 10:40:00
5:54 AM,77.0,73.9,90,30.09,10.0,South,9.2,-,N/A,,Scattered Clouds,180,2012-09-01 10:54:00
6:36 AM,77.0,73.4,89,30.11,10.0,South,9.2,-,N/A,,Mostly Cloudy,190,2012-09-01 11:36:00
6:43 AM,77.0,73.4,89,30.11,10.0,South,8.1,-,N/A,,Mostly Cloudy,180,2012-09-01 11:43:00
6:54 AM,77.0,73.9,90,30.10,9.0,South,6.9,-,N/A,,Mostly Cloudy,180,2012-09-01 11:54:00
7:33 AM,78.8,75.2,89,30.13,10.0,South,9.2,-,N/A,,Scattered Clouds,180,2012-09-01 12:33:00
7:54 AM,78.1,75.0,90,30.12,10.0,South,9.2,-,N/A,,Partly Cloudy,190,2012-09-01 12:54:00
8:06 AM,78.8,75.2,89,30.14,10.0,South,10.4,-,N/A,,Mostly Cloudy,190,2012-09-01 13:06:00
8:24 AM,80.6,75.2,84,30.14,10.0,SSW,11.5,-,N/A,,Mostly Cloudy,200,2012-09-01 13:24:00
8:42 AM,80.6,75.2,84,30.14,10.0,SSW,10.4,-,N/A,,Mostly Cloudy,200,2012-09-01 13:42:00
8:54 AM,81.0,75.0,82,30.13,10.0,South,10.4,-,N/A,,Scattered Clouds,190,2012-09-01 13:54:00
9:01 AM,80.6,75.2,84,30.14,10.0,SSW,10.4,-,N/A,,Mostly Cloudy,200,2012-09-01 14:01:00
9:17 AM,82.4,75.2,79,30.14,10.0,South,11.5,-,N/A,,Mostly Cloudy,190,2012-09-01 14:17:00
9:54 AM,82.0,73.9,76,30.14,10.0,SSW,11.5,-,N/A,,Mostly Cloudy,200,2012-09-01 14:54:00
10:40 AM,84.2,73.4,70,30.15,10.0,SW,12.7,-,N/A,,Overcast,220,2012-09-01 15:40:00
10:54 AM,84.0,73.9,72,30.13,10.0,SSW,12.7,-,N/A,,Overcast,210,2012-09-01 15:54:00
11:54 AM,87.1,75.0,67,30.12,10.0,SSW,10.4,20.7,N/A,,Mostly Cloudy,210,2012-09-01 16:54:00
12:54 PM,89.1,75.9,65,30.09,10.0,SSW,6.9,-,0.00,Rain,Light Rain,200,2012-09-01 17:54:00
1:22 PM,78.8,75.2,89,30.11,0.8,West,16.1,28.8,0.07,Rain,Heavy Rain,270,2012-09-01 18:22:00
1:27 PM,77.0,73.4,89,30.11,1.0,West,12.7,20.7,0.18,Rain-Thunderstorm,Heavy Thunderstorms and Rain,280,2012-09-01 18:27:00
1:37 PM,78.8,73.4,83,30.11,3.0,Variable,4.6,-,0.25,Rain-Thunderstorm,Light Thunderstorms and Rain,0,2012-09-01 18:37:00
1:54 PM,82.0,73.9,76,30.09,10.0,Calm,Calm,-,0.25,Thunderstorm,Thunderstorm,0,2012-09-01 18:54:00
2:22 PM,84.2,75.2,74,30.09,10.0,South,10.4,-,N/A,,Scattered Clouds,190,2012-09-01 19:22:00
2:54 PM,84.0,75.0,74,30.05,10.0,SSW,5.8,-,N/A,,Scattered Clouds,210,2012-09-01 19:54:00
3:54 PM,87.1,75.0,67,30.04,10.0,SSW,10.4,-,N/A,,Partly Cloudy,200,2012-09-01 20:54:00
4:54 PM,87.1,75.0,67,30.04,10.0,SSW,12.7,-,N/A,,Partly Cloudy,210,2012-09-01 21:54:00
5:54 PM,84.9,73.9,69,30.04,10.0,South,10.4,-,N/A,,Partly Cloudy,190,2012-09-01 22:54:00
6:54 PM,82.9,73.9,74,30.03,10.0,South,10.4,-,N/A,,Partly Cloudy,180,2012-09-01 23:54:00
7:54 PM,79.0,73.9,84,30.04,10.0,South,9.2,-,N/A,,Partly Cloudy,190,2012-09-02 00:54:00
8:54 PM,78.1,73.0,84,30.06,10.0,South,6.9,-,N/A,,Partly Cloudy,190,2012-09-02 01:54:00
9:54 PM,77.0,72.0,84,30.05,10.0,SSW,8.1,-,N/A,,Clear,200,2012-09-02 02:54:00
10:54 PM,75.2,71.6,89,30.06,10.0,South,5.8,-,N/A,,Clear,190,2012-09-02 03:54:00
11:54 PM,75.9,72.0,87,30.05,10.0,South,6.9,-,N/A,,Clear,190,2012-09-02 04:54:00